sensor_id;sensor_type;location;lat;lon;timestamp;temperature;humidity
10512;DHT22;5304;48.604;2.096;2023-07-13T04:10:21;16.60;99.90
10512;DHT22;5304;48.604;2.096;2023-07-13T04:13:05;16.50;99.90
10512;DHT22;5304;48.604;2.096;2023-07-13T04:15:50;16.50;99.90
10512;DHT22;5304;48.604;2.096;2023-07-13T04:18:35;16.40;99.90
10512;DHT22;5304;48.604;2.096;2023-07-13T04:21:19;16.30;99.90
10512;DHT22;5304;48.604;2.096;2023-07-13T04:24:04;16.20;99.90
10512;DHT22;5304;48.604;2.096;2023-07-13T04:26:48;16.20;99.90
10512;DHT22;5304;48.604;2.096;2023-07-13T04:29:33;16.20;99.90
10512;DHT22;5304;48.604;2.096;2023-07-13T04:32:18;16.20;99.90
10512;DHT22;5304;48.604;2.096;2023-07-13T04:35:02;16.20;99.90
10512;DHT22;5304;48.604;2.096;2023-07-13T04:37:48;16.10;99.90
10512;DHT22;5304;48.604;2.096;2023-07-13T04:40:34;16.10;99.90
10512;DHT22;5304;48.604;2.096;2023-07-13T04:43:18;16.20;99.90
10512;DHT22;5304;48.604;2.096;2023-07-13T04:46:04;16.20;99.90
10512;DHT22;5304;48.604;2.096;2023-07-13T04:48:49;16.20;99.90
10512;DHT22;5304;48.604;2.096;2023-07-13T04:51:35;16.20;99.90
10512;DHT22;5304;48.604;2.096;2023-07-13T04:54:19;16.30;99.90
10512;DHT22;5304;48.604;2.096;2023-07-13T04:57:04;16.30;99.90
10512;DHT22;5304;48.604;2.096;2023-07-13T04:59:50;16.40;99.90
10512;DHT22;5304;48.604;2.096;2023-07-13T05:02:34;16.40;99.90
10512;DHT22;5304;48.604;2.096;2023-07-13T05:05:19;16.40;99.90
10512;DHT22;5304;48.604;2.096;2023-07-13T05:08:03;16.50;99.90
10512;DHT22;5304;48.604;2.096;2023-07-13T05:10:47;16.50;99.90
10512;DHT22;5304;48.604;2.096;2023-07-13T05:13:32;16.50;99.90
10512;DHT22;5304;48.604;2.096;2023-07-13T05:16:16;16.50;99.90
10512;DHT22;5304;48.604;2.096;2023-07-13T05:19:02;16.50;99.90
10512;DHT22;5304;48.604;2.096;2023-07-13T05:21:47;16.70;99.90
10512;DHT22;5304;48.604;2.096;2023-07-13T05:24:31;16.70;99.90
10512;DHT22;5304;48.604;2.096;2023-07-13T05:27:15;16.70;99.90
10512;DHT22;5304;48.604;2.096;2023-07-13T05:29:59;16.70;99.90
10512;DHT22;5304;48.604;2.096;2023-07-13T05:32:44;16.90;99.90
10512;DHT22;5304;48.604;2.096;2023-07-13T05:35:29;17.00;99.90
10512;DHT22;5304;48.604;2.096;2023-07-13T05:38:14;17.20;99.90
10512;DHT22;5304;48.604;2.096;2023-07-13T05:40:59;17.20;99.90
10512;DHT22;5304;48.604;2.096;2023-07-13T05:43:43;17.30;99.90
10512;DHT22;5304;48.604;2.096;2023-07-13T05:46:27;17.30;99.90
10512;DHT22;5304;48.604;2.096;2023-07-13T05:49:11;17.30;99.90
10512;DHT22;5304;48.604;2.096;2023-07-13T05:51:56;17.30;99.90
10512;DHT22;5304;48.604;2.096;2023-07-13T05:54:40;17.40;99.90
10512;DHT22;5304;48.604;2.096;2023-07-13T05:57:25;17.50;99.90
10512;DHT22;5304;48.604;2.096;2023-07-13T06:00:09;17.60;99.90
10512;DHT22;5304;48.604;2.096;2023-07-13T06:02:55;17.80;99.90
10512;DHT22;5304;48.604;2.096;2023-07-13T06:05:40;17.80;99.90
10512;DHT22;5304;48.604;2.096;2023-07-13T06:08:24;17.90;99.90
10512;DHT22;5304;48.604;2.096;2023-07-13T06:11:18;18.00;99.90
10512;DHT22;5304;48.604;2.096;2023-07-13T06:14:02;18.20;99.90
10512;DHT22;5304;48.604;2.096;2023-07-13T06:16:48;18.40;99.90
10512;DHT22;5304;48.604;2.096;2023-07-13T06:19:32;18.40;99.90
10512;DHT22;5304;48.604;2.096;2023-07-13T06:22:16;18.40;99.90
10512;DHT22;5304;48.604;2.096;2023-07-13T06:25:01;18.30;99.90
10512;DHT22;5304;48.604;2.096;2023-07-13T06:27:45;18.30;99.90
10512;DHT22;5304;48.604;2.096;2023-07-13T06:30:29;18.30;99.90
10512;DHT22;5304;48.604;2.096;2023-07-13T06:33:14;18.30;99.90
10512;DHT22;5304;48.604;2.096;2023-07-13T06:35:58;18.30;99.90
10512;DHT22;5304;48.604;2.096;2023-07-13T06:38:42;18.40;99.90
10512;DHT22;5304;48.604;2.096;2023-07-13T06:41:26;18.50;99.90
10512;DHT22;5304;48.604;2.096;2023-07-13T06:44:11;18.60;99.90
10512;DHT22;5304;48.604;2.096;2023-07-13T06:46:56;18.90;99.90
10512;DHT22;5304;48.604;2.096;2023-07-13T06:49:40;19.10;99.90
10512;DHT22;5304;48.604;2.096;2023-07-13T06:52:24;19.30;99.90
10512;DHT22;5304;48.604;2.096;2023-07-13T06:55:08;19.40;99.90
10512;DHT22;5304;48.604;2.096;2023-07-13T06:57:53;19.50;99.90
10512;DHT22;5304;48.604;2.096;2023-07-13T07:00:37;19.70;99.90
10512;DHT22;5304;48.604;2.096;2023-07-13T07:03:24;19.80;99.90
10512;DHT22;5304;48.604;2.096;2023-07-13T07:06:17;20.00;99.90
10512;DHT22;5304;48.604;2.096;2023-07-13T07:09:01;20.30;99.90
10512;DHT22;5304;48.604;2.096;2023-07-13T07:11:46;20.60;99.90
10512;DHT22;5304;48.604;2.096;2023-07-13T07:14:31;20.80;99.90
10512;DHT22;5304;48.604;2.096;2023-07-13T07:17:15;20.90;99.90
10512;DHT22;5304;48.604;2.096;2023-07-13T07:19:59;21.20;99.90
10512;DHT22;5304;48.604;2.096;2023-07-13T07:22:44;21.80;99.90
10512;DHT22;5304;48.604;2.096;2023-07-13T07:25:28;22.70;99.90
10512;DHT22;5304;48.604;2.096;2023-07-13T07:28:16;23.30;99.90
10512;DHT22;5304;48.604;2.096;2023-07-13T07:31:03;23.20;99.90
10512;DHT22;5304;48.604;2.096;2023-07-13T07:33:48;22.90;99.90
10512;DHT22;5304;48.604;2.096;2023-07-13T07:36:34;22.70;99.90
10512;DHT22;5304;48.604;2.096;2023-07-13T07:39:18;22.70;99.90
10512;DHT22;5304;48.604;2.096;2023-07-13T07:42:03;23.00;99.90
10512;DHT22;5304;48.604;2.096;2023-07-13T07:44:47;23.50;99.90
10512;DHT22;5304;48.604;2.096;2023-07-13T07:47:31;23.90;99.90
10512;DHT22;5304;48.604;2.096;2023-07-13T07:50:16;23.80;99.90
10512;DHT22;5304;48.604;2.096;2023-07-13T07:53:00;23.70;99.90
10512;DHT22;5304;48.604;2.096;2023-07-13T07:55:46;23.70;99.90
10512;DHT22;5304;48.604;2.096;2023-07-13T07:58:31;24.10;99.90
10512;DHT22;5304;48.604;2.096;2023-07-13T08:01:16;24.60;99.90
10512;DHT22;5304;48.604;2.096;2023-07-13T08:04:00;25.60;99.90
10512;DHT22;5304;48.604;2.096;2023-07-13T08:06:44;26.50;99.90
10512;DHT22;5304;48.604;2.096;2023-07-13T08:09:29;26.80;99.90
10512;DHT22;5304;48.604;2.096;2023-07-13T08:12:13;27.80;99.90
10512;DHT22;5304;48.604;2.096;2023-07-13T08:14:58;28.40;99.90
10512;DHT22;5304;48.604;2.096;2023-07-13T08:17:44;27.50;99.90
10512;DHT22;5304;48.604;2.096;2023-07-13T08:20:28;25.90;99.90
10512;DHT22;5304;48.604;2.096;2023-07-13T08:23:13;25.40;99.90
10512;DHT22;5304;48.604;2.096;2023-07-13T08:25:57;25.60;99.90
10512;DHT22;5304;48.604;2.096;2023-07-13T08:28:42;26.40;99.90
10512;DHT22;5304;48.604;2.096;2023-07-13T08:31:26;26.70;99.90
10512;DHT22;5304;48.604;2.096;2023-07-13T08:34:10;27.10;99.90
10512;DHT22;5304;48.604;2.096;2023-07-13T08:36:55;27.20;99.90
10512;DHT22;5304;48.604;2.096;2023-07-13T08:39:39;27.50;99.90
10512;DHT22;5304;48.604;2.096;2023-07-13T08:42:42;27.60;99.90
10512;DHT22;5304;48.604;2.096;2023-07-13T08:45:51;27.50;99.90
10512;DHT22;5304;48.604;2.096;2023-07-13T08:48:47;26.90;99.90
10512;DHT22;5304;48.604;2.096;2023-07-13T08:54:35;26.60;99.90
10512;DHT22;5304;48.604;2.096;2023-07-13T08:57:27;26.70;99.90
10512;DHT22;5304;48.604;2.096;2023-07-13T09:00:15;26.20;99.90
10512;DHT22;5304;48.604;2.096;2023-07-13T09:03:00;25.40;99.90
10512;DHT22;5304;48.604;2.096;2023-07-13T09:05:48;24.80;99.90
10512;DHT22;5304;48.604;2.096;2023-07-13T09:09:00;24.10;99.90
10512;DHT22;5304;48.604;2.096;2023-07-13T09:11:49;24.10;99.90
10512;DHT22;5304;48.604;2.096;2023-07-13T09:14:48;24.10;99.90
10512;DHT22;5304;48.604;2.096;2023-07-13T09:17:50;24.30;99.90
10512;DHT22;5304;48.604;2.096;2023-07-13T09:20:51;24.80;99.90
10512;DHT22;5304;48.604;2.096;2023-07-13T09:23:37;25.60;99.90
10512;DHT22;5304;48.604;2.096;2023-07-13T09:26:24;25.80;99.90
10512;DHT22;5304;48.604;2.096;2023-07-13T09:29:27;25.40;99.90
10512;DHT22;5304;48.604;2.096;2023-07-13T09:32:14;25.00;99.90
10512;DHT22;5304;48.604;2.096;2023-07-13T09:34:59;25.00;99.90
10512;DHT22;5304;48.604;2.096;2023-07-13T09:37:47;24.90;99.90
10512;DHT22;5304;48.604;2.096;2023-07-13T09:41:02;24.70;99.90
10512;DHT22;5304;48.604;2.096;2023-07-13T09:46:52;24.20;99.90
10512;DHT22;5304;48.604;2.096;2023-07-13T09:49:37;24.00;99.90
10512;DHT22;5304;48.604;2.096;2023-07-13T09:52:21;23.90;99.90
10512;DHT22;5304;48.604;2.096;2023-07-13T09:55:24;23.90;99.90
10512;DHT22;5304;48.604;2.096;2023-07-13T09:58:21;24.30;99.90
10512;DHT22;5304;48.604;2.096;2023-07-13T10:01:06;24.30;99.90
10512;DHT22;5304;48.604;2.096;2023-07-13T10:03:54;24.20;99.90
10512;DHT22;5304;48.604;2.096;2023-07-13T10:06:39;24.10;99.90
10512;DHT22;5304;48.604;2.096;2023-07-13T10:09:27;23.90;99.90
10512;DHT22;5304;48.604;2.096;2023-07-13T10:12:14;23.80;99.90
10512;DHT22;5304;48.604;2.096;2023-07-13T10:15:00;24.10;99.90
10512;DHT22;5304;48.604;2.096;2023-07-13T10:17:45;25.00;99.90
10512;DHT22;5304;48.604;2.096;2023-07-13T10:20:30;25.80;99.90
10512;DHT22;5304;48.604;2.096;2023-07-13T10:23:21;25.70;99.90
10512;DHT22;5304;48.604;2.096;2023-07-13T10:26:15;25.20;99.90
10512;DHT22;5304;48.604;2.096;2023-07-13T10:29:12;24.60;99.90
10512;DHT22;5304;48.604;2.096;2023-07-13T10:31:58;24.50;99.90
10512;DHT22;5304;48.604;2.096;2023-07-13T10:34:44;24.30;99.90
10512;DHT22;5304;48.604;2.096;2023-07-13T10:37:40;24.00;99.90
10512;DHT22;5304;48.604;2.096;2023-07-13T10:40:29;23.80;99.90
10512;DHT22;5304;48.604;2.096;2023-07-13T10:46:14;23.60;99.90
10512;DHT22;5304;48.604;2.096;2023-07-13T10:49:05;23.30;99.90
10512;DHT22;5304;48.604;2.096;2023-07-13T10:51:50;23.10;99.90
10512;DHT22;5304;48.604;2.096;2023-07-13T10:54:36;23.00;99.90
10512;DHT22;5304;48.604;2.096;2023-07-13T10:57:21;23.00;99.90
10512;DHT22;5304;48.604;2.096;2023-07-13T11:00:15;23.10;99.90
10512;DHT22;5304;48.604;2.096;2023-07-13T11:03:01;23.20;99.90
10512;DHT22;5304;48.604;2.096;2023-07-13T11:05:49;23.20;99.90
10512;DHT22;5304;48.604;2.096;2023-07-13T11:08:37;23.20;99.90
10512;DHT22;5304;48.604;2.096;2023-07-13T11:17:51;23.00;99.90
10512;DHT22;5304;48.604;2.096;2023-07-13T11:20:42;22.80;99.90
10512;DHT22;5304;48.604;2.096;2023-07-13T11:23:29;22.60;99.90
10512;DHT22;5304;48.604;2.096;2023-07-13T11:32:40;22.90;99.90
10512;DHT22;5304;48.604;2.096;2023-07-13T11:35:26;23.40;99.90
10512;DHT22;5304;48.604;2.096;2023-07-13T11:41:22;23.80;99.90
10512;DHT22;5304;48.604;2.096;2023-07-13T11:44:12;24.10;99.90
10512;DHT22;5304;48.604;2.096;2023-07-13T11:47:00;24.40;99.90
10512;DHT22;5304;48.604;2.096;2023-07-13T11:49:55;24.40;99.90
10512;DHT22;5304;48.604;2.096;2023-07-13T11:52:43;24.20;99.90
10512;DHT22;5304;48.604;2.096;2023-07-13T11:55:28;24.10;99.90
10512;DHT22;5304;48.604;2.096;2023-07-13T11:58:19;24.20;99.90
10512;DHT22;5304;48.604;2.096;2023-07-13T12:01:04;24.80;99.90
10512;DHT22;5304;48.604;2.096;2023-07-13T12:03:49;25.20;99.90
10512;DHT22;5304;48.604;2.096;2023-07-13T12:06:35;25.20;99.90
10512;DHT22;5304;48.604;2.096;2023-07-13T12:09:26;24.90;99.90
10512;DHT22;5304;48.604;2.096;2023-07-13T12:12:13;24.70;99.90
10512;DHT22;5304;48.604;2.096;2023-07-13T12:14:57;24.60;99.90
10512;DHT22;5304;48.604;2.096;2023-07-13T12:17:42;24.60;99.90
10512;DHT22;5304;48.604;2.096;2023-07-13T12:20:33;24.60;99.90
10512;DHT22;5304;48.604;2.096;2023-07-13T12:26:13;24.50;99.90
10512;DHT22;5304;48.604;2.096;2023-07-13T12:29:01;24.30;99.90
10512;DHT22;5304;48.604;2.096;2023-07-13T12:31:48;24.10;99.90
10512;DHT22;5304;48.604;2.096;2023-07-13T12:34:53;23.80;99.90
10512;DHT22;5304;48.604;2.096;2023-07-13T12:37:38;23.80;99.90
10512;DHT22;5304;48.604;2.096;2023-07-13T12:40:29;23.90;99.90
10512;DHT22;5304;48.604;2.096;2023-07-13T12:43:15;24.10;99.90
10512;DHT22;5304;48.604;2.096;2023-07-13T12:46:03;24.40;99.90
10512;DHT22;5304;48.604;2.096;2023-07-13T12:48:53;24.50;99.90
10512;DHT22;5304;48.604;2.096;2023-07-13T12:51:38;24.50;99.90
10512;DHT22;5304;48.604;2.096;2023-07-13T12:54:22;24.60;99.90
10512;DHT22;5304;48.604;2.096;2023-07-13T12:57:13;24.70;99.90
10512;DHT22;5304;48.604;2.096;2023-07-13T13:00:00;24.90;99.90
10512;DHT22;5304;48.604;2.096;2023-07-13T13:02:51;24.90;99.90
10512;DHT22;5304;48.604;2.096;2023-07-13T13:05:36;24.80;99.90
10512;DHT22;5304;48.604;2.096;2023-07-13T13:08:21;25.00;99.90
10512;DHT22;5304;48.604;2.096;2023-07-13T13:11:05;25.00;99.90
10512;DHT22;5304;48.604;2.096;2023-07-13T13:13:50;25.10;99.90
10512;DHT22;5304;48.604;2.096;2023-07-13T13:16:53;25.20;99.90
10512;DHT22;5304;48.604;2.096;2023-07-13T13:19:37;25.30;99.90
10512;DHT22;5304;48.604;2.096;2023-07-13T13:22:21;25.50;99.90
10512;DHT22;5304;48.604;2.096;2023-07-13T13:25:11;25.60;99.90
10512;DHT22;5304;48.604;2.096;2023-07-13T13:27:56;25.70;99.90
10512;DHT22;5304;48.604;2.096;2023-07-13T13:30:40;25.60;99.90
10512;DHT22;5304;48.604;2.096;2023-07-13T13:33:25;25.60;99.90
10512;DHT22;5304;48.604;2.096;2023-07-13T13:36:20;25.60;99.90
10512;DHT22;5304;48.604;2.096;2023-07-13T13:39:22;25.40;99.90
10512;DHT22;5304;48.604;2.096;2023-07-13T13:42:09;25.30;99.90
10512;DHT22;5304;48.604;2.096;2023-07-13T13:44:54;25.20;99.90
10512;DHT22;5304;48.604;2.096;2023-07-13T13:47:40;25.20;99.90
10512;DHT22;5304;48.604;2.096;2023-07-13T13:50:25;25.20;99.90
10512;DHT22;5304;48.604;2.096;2023-07-13T13:53:13;25.30;99.90
10512;DHT22;5304;48.604;2.096;2023-07-13T13:55:57;25.60;99.90
10512;DHT22;5304;48.604;2.096;2023-07-13T13:58:43;25.80;99.90
10512;DHT22;5304;48.604;2.096;2023-07-13T14:01:29;26.00;99.90
10512;DHT22;5304;48.604;2.096;2023-07-13T14:04:17;26.00;99.90
10512;DHT22;5304;48.604;2.096;2023-07-13T14:07:02;26.40;99.90
10512;DHT22;5304;48.604;2.096;2023-07-13T14:09:46;26.80;99.90
10512;DHT22;5304;48.604;2.096;2023-07-13T14:12:30;26.80;99.90
10512;DHT22;5304;48.604;2.096;2023-07-13T14:15:27;27.00;99.90
10512;DHT22;5304;48.604;2.096;2023-07-13T14:18:13;26.80;99.90
10512;DHT22;5304;48.604;2.096;2023-07-13T14:21:01;26.30;99.90
10512;DHT22;5304;48.604;2.096;2023-07-13T14:23:47;26.10;99.90
10512;DHT22;5304;48.604;2.096;2023-07-13T14:26:36;26.10;99.90
10512;DHT22;5304;48.604;2.096;2023-07-13T14:29:21;26.40;99.90
10512;DHT22;5304;48.604;2.096;2023-07-13T14:32:11;26.80;99.90
10512;DHT22;5304;48.604;2.096;2023-07-13T14:34:55;27.20;99.90
10512;DHT22;5304;48.604;2.096;2023-07-13T14:37:41;26.60;99.90
10512;DHT22;5304;48.604;2.096;2023-07-13T14:40:30;26.50;99.90
10512;DHT22;5304;48.604;2.096;2023-07-13T14:43:16;26.20;99.90
10512;DHT22;5304;48.604;2.096;2023-07-13T14:46:00;25.90;99.90
10512;DHT22;5304;48.604;2.096;2023-07-13T14:48:44;25.90;99.90
10512;DHT22;5304;48.604;2.096;2023-07-13T14:51:29;25.80;99.90
10512;DHT22;5304;48.604;2.096;2023-07-13T14:54:14;25.80;99.90
10512;DHT22;5304;48.604;2.096;2023-07-13T14:56:58;26.10;99.90
10512;DHT22;5304;48.604;2.096;2023-07-13T14:59:42;26.50;99.90
10512;DHT22;5304;48.604;2.096;2023-07-13T15:02:33;26.70;99.90
10512;DHT22;5304;48.604;2.096;2023-07-13T15:05:20;26.70;99.90
10512;DHT22;5304;48.604;2.096;2023-07-13T15:08:09;26.40;99.90
10512;DHT22;5304;48.604;2.096;2023-07-13T15:10:55;26.20;99.90
10512;DHT22;5304;48.604;2.096;2023-07-13T15:13:45;25.90;99.90
10512;DHT22;5304;48.604;2.096;2023-07-13T15:16:29;25.70;99.90
10512;DHT22;5304;48.604;2.096;2023-07-13T15:19:13;25.70;99.90
10512;DHT22;5304;48.604;2.096;2023-07-13T15:21:58;25.70;99.90
10512;DHT22;5304;48.604;2.096;2023-07-13T15:24:42;25.50;99.90
10512;DHT22;5304;48.604;2.096;2023-07-13T15:27:26;25.40;99.90
10512;DHT22;5304;48.604;2.096;2023-07-13T15:30:11;25.50;99.90
10512;DHT22;5304;48.604;2.096;2023-07-13T15:33:09;25.60;99.90
10512;DHT22;5304;48.604;2.096;2023-07-13T15:35:56;25.40;99.90
10512;DHT22;5304;48.604;2.096;2023-07-13T15:38:43;25.40;99.90
10512;DHT22;5304;48.604;2.096;2023-07-13T15:41:29;25.40;99.90
10512;DHT22;5304;48.604;2.096;2023-07-13T15:44:26;25.40;99.90
10512;DHT22;5304;48.604;2.096;2023-07-13T15:47:12;25.40;99.90
10512;DHT22;5304;48.604;2.096;2023-07-13T15:49:56;25.50;99.90
10512;DHT22;5304;48.604;2.096;2023-07-13T15:52:45;25.60;99.90
10512;DHT22;5304;48.604;2.096;2023-07-13T15:55:32;25.60;99.90
10512;DHT22;5304;48.604;2.096;2023-07-13T15:58:17;25.70;99.90
10512;DHT22;5304;48.604;2.096;2023-07-13T16:01:01;25.60;99.90
10512;DHT22;5304;48.604;2.096;2023-07-13T16:03:47;25.40;99.90
10512;DHT22;5304;48.604;2.096;2023-07-13T16:06:34;25.30;99.90
10512;DHT22;5304;48.604;2.096;2023-07-13T16:09:21;25.40;99.90
10512;DHT22;5304;48.604;2.096;2023-07-13T16:12:11;25.50;99.90
10512;DHT22;5304;48.604;2.096;2023-07-13T16:14:56;25.60;99.90
10512;DHT22;5304;48.604;2.096;2023-07-13T16:17:40;25.70;99.90
10512;DHT22;5304;48.604;2.096;2023-07-13T16:20:24;25.60;99.90
10512;DHT22;5304;48.604;2.096;2023-07-13T16:23:10;25.50;99.90
10512;DHT22;5304;48.604;2.096;2023-07-13T16:25:56;25.60;99.90
10512;DHT22;5304;48.604;2.096;2023-07-13T16:28:40;25.40;99.90
10512;DHT22;5304;48.604;2.096;2023-07-13T16:31:31;25.40;99.90
10512;DHT22;5304;48.604;2.096;2023-07-13T16:34:18;25.20;99.90
10512;DHT22;5304;48.604;2.096;2023-07-13T16:37:12;25.20;99.90
10512;DHT22;5304;48.604;2.096;2023-07-13T16:39:58;25.20;99.90
10512;DHT22;5304;48.604;2.096;2023-07-13T16:42:44;25.40;99.90
10512;DHT22;5304;48.604;2.096;2023-07-13T16:45:31;25.50;99.90
10512;DHT22;5304;48.604;2.096;2023-07-13T16:48:20;25.50;99.90
10512;DHT22;5304;48.604;2.096;2023-07-13T16:51:06;25.50;99.90
10512;DHT22;5304;48.604;2.096;2023-07-13T16:53:50;25.40;99.90
10512;DHT22;5304;48.604;2.096;2023-07-13T16:56:35;25.30;99.90
10512;DHT22;5304;48.604;2.096;2023-07-13T16:59:20;25.10;99.90
10512;DHT22;5304;48.604;2.096;2023-07-13T17:05:11;24.80;99.90
10512;DHT22;5304;48.604;2.096;2023-07-13T17:07:59;24.70;99.90
10512;DHT22;5304;48.604;2.096;2023-07-13T17:10:43;24.50;99.90
10512;DHT22;5304;48.604;2.096;2023-07-13T17:13:29;24.40;99.90
10512;DHT22;5304;48.604;2.096;2023-07-13T17:16:14;24.30;99.90
10512;DHT22;5304;48.604;2.096;2023-07-13T17:19:00;24.20;99.90
10512;DHT22;5304;48.604;2.096;2023-07-13T17:21:46;24.10;99.90
10512;DHT22;5304;48.604;2.096;2023-07-13T17:24:33;24.10;99.90
10512;DHT22;5304;48.604;2.096;2023-07-13T17:27:18;24.10;99.90
10512;DHT22;5304;48.604;2.096;2023-07-13T17:30:03;24.20;99.90
10512;DHT22;5304;48.604;2.096;2023-07-13T17:32:49;24.30;99.90
10512;DHT22;5304;48.604;2.096;2023-07-13T17:35:35;24.40;99.90
10512;DHT22;5304;48.604;2.096;2023-07-13T17:38:20;24.50;99.90
10512;DHT22;5304;48.604;2.096;2023-07-13T17:41:04;24.60;99.90
10512;DHT22;5304;48.604;2.096;2023-07-13T17:43:49;24.60;99.90
10512;DHT22;5304;48.604;2.096;2023-07-13T17:46:34;24.60;99.90
10512;DHT22;5304;48.604;2.096;2023-07-13T17:49:21;24.50;99.90
10512;DHT22;5304;48.604;2.096;2023-07-13T17:52:13;24.40;99.90
10512;DHT22;5304;48.604;2.096;2023-07-13T17:54:59;24.30;99.90
10512;DHT22;5304;48.604;2.096;2023-07-13T17:57:47;24.20;99.90
10512;DHT22;5304;48.604;2.096;2023-07-13T18:00:37;24.10;99.90
10512;DHT22;5304;48.604;2.096;2023-07-13T18:03:27;24.10;99.90
10512;DHT22;5304;48.604;2.096;2023-07-13T18:06:17;24.00;99.90
10512;DHT22;5304;48.604;2.096;2023-07-13T18:09:12;24.00;99.90
10512;DHT22;5304;48.604;2.096;2023-07-13T18:11:57;23.90;99.90
10512;DHT22;5304;48.604;2.096;2023-07-13T18:14:42;23.90;99.90
10512;DHT22;5304;48.604;2.096;2023-07-13T18:17:26;23.80;99.90
10512;DHT22;5304;48.604;2.096;2023-07-13T18:20:15;23.80;99.90
10512;DHT22;5304;48.604;2.096;2023-07-13T18:23:01;23.70;99.90
10512;DHT22;5304;48.604;2.096;2023-07-13T18:25:47;23.60;99.90
10512;DHT22;5304;48.604;2.096;2023-07-13T18:28:32;23.60;99.90
10512;DHT22;5304;48.604;2.096;2023-07-13T18:31:19;23.50;99.90
10512;DHT22;5304;48.604;2.096;2023-07-13T18:34:04;23.50;99.90
10512;DHT22;5304;48.604;2.096;2023-07-13T18:36:51;23.40;99.90
10512;DHT22;5304;48.604;2.096;2023-07-13T18:39:37;23.40;99.90
10512;DHT22;5304;48.604;2.096;2023-07-13T18:42:21;23.40;99.90
10512;DHT22;5304;48.604;2.096;2023-07-13T18:45:09;23.30;99.90
10512;DHT22;5304;48.604;2.096;2023-07-13T18:47:56;23.30;99.90
10512;DHT22;5304;48.604;2.096;2023-07-13T18:50:42;23.30;99.90
10512;DHT22;5304;48.604;2.096;2023-07-13T18:53:27;23.30;99.90
10512;DHT22;5304;48.604;2.096;2023-07-13T18:56:11;23.30;99.90
10512;DHT22;5304;48.604;2.096;2023-07-13T18:58:56;23.10;99.90
10512;DHT22;5304;48.604;2.096;2023-07-13T19:01:40;23.00;99.90
10512;DHT22;5304;48.604;2.096;2023-07-13T19:04:30;23.00;99.90
10512;DHT22;5304;48.604;2.096;2023-07-13T19:07:14;22.90;99.90
10512;DHT22;5304;48.604;2.096;2023-07-13T19:09:59;22.80;99.90
10512;DHT22;5304;48.604;2.096;2023-07-13T19:12:46;22.80;99.90
10512;DHT22;5304;48.604;2.096;2023-07-13T19:15:32;22.60;99.90
10512;DHT22;5304;48.604;2.096;2023-07-13T19:18:19;22.30;99.90
10512;DHT22;5304;48.604;2.096;2023-07-13T19:21:41;22.00;99.90
10512;DHT22;5304;48.604;2.096;2023-07-13T19:24:22;21.90;99.90
10512;DHT22;5304;48.604;2.096;2023-07-13T19:27:11;21.70;99.90
10512;DHT22;5304;48.604;2.096;2023-07-13T19:29:56;21.70;99.90
10512;DHT22;5304;48.604;2.096;2023-07-13T19:32:41;21.50;99.90
10512;DHT22;5304;48.604;2.096;2023-07-13T19:35:26;21.40;99.90
10512;DHT22;5304;48.604;2.096;2023-07-13T19:38:16;21.20;99.90
10512;DHT22;5304;48.604;2.096;2023-07-13T19:41:03;21.10;99.90
10512;DHT22;5304;48.604;2.096;2023-07-13T19:43:51;21.00;99.90
10512;DHT22;5304;48.604;2.096;2023-07-13T19:46:36;20.80;99.90
10512;DHT22;5304;48.604;2.096;2023-07-13T19:49:20;20.60;99.90
10512;DHT22;5304;48.604;2.096;2023-07-13T19:52:16;20.50;99.90
10512;DHT22;5304;48.604;2.096;2023-07-13T19:55:04;20.40;99.90
10512;DHT22;5304;48.604;2.096;2023-07-13T19:57:52;20.40;99.90
10512;DHT22;5304;48.604;2.096;2023-07-13T20:00:37;20.20;99.90
10512;DHT22;5304;48.604;2.096;2023-07-13T20:03:22;20.10;99.90
10512;DHT22;5304;48.604;2.096;2023-07-13T20:09:19;19.90;99.90
10512;DHT22;5304;48.604;2.096;2023-07-13T20:12:12;19.80;99.90
10512;DHT22;5304;48.604;2.096;2023-07-13T20:14:57;19.80;99.90
10512;DHT22;5304;48.604;2.096;2023-07-13T20:17:44;19.70;99.90
10512;DHT22;5304;48.604;2.096;2023-07-13T20:20:35;19.60;99.90
10512;DHT22;5304;48.604;2.096;2023-07-13T20:23:23;19.50;99.90
10512;DHT22;5304;48.604;2.096;2023-07-13T20:26:10;19.40;99.90
10512;DHT22;5304;48.604;2.096;2023-07-13T20:28:54;19.30;99.90
10512;DHT22;5304;48.604;2.096;2023-07-13T20:31:39;19.20;99.90
10512;DHT22;5304;48.604;2.096;2023-07-13T20:34:26;19.10;99.90
10512;DHT22;5304;48.604;2.096;2023-07-13T20:37:36;19.00;99.90
10512;DHT22;5304;48.604;2.096;2023-07-13T20:40:24;18.90;99.90
10512;DHT22;5304;48.604;2.096;2023-07-13T20:43:09;18.90;99.90
